createdAt,value
2022-11-20T00:03:59.197Z,75.15
2022-11-20T00:09:03.731Z,75.34
2022-11-20T00:14:08.115Z,75.39
2022-11-20T00:19:10.936Z,75.56
2022-11-20T00:24:13.876Z,75.51
2022-11-20T00:29:16.753Z,75.24
2022-11-20T00:34:20.044Z,75.39
2022-11-20T00:39:23.221Z,75.39
2022-11-20T00:44:27.567Z,75.82
2022-11-20T00:49:33.280Z,75.83
2022-11-20T00:54:36.231Z,75.59
2022-11-20T00:59:39.300Z,75.80
2022-11-20T01:04:43.091Z,75.86
2022-11-20T01:09:47.409Z,75.61
2022-11-20T01:14:50.185Z,75.81
2022-11-20T01:19:53.102Z,75.89
2022-11-20T01:24:57.657Z,75.99
2022-11-20T01:30:02.738Z,75.61
2022-11-20T01:35:06.703Z,75.81
2022-11-20T01:40:12.163Z,75.70
2022-11-20T01:46:06.767Z,75.71
2022-11-20T01:51:27.483Z,76.20
2022-11-20T01:56:32.371Z,76.31
2022-11-20T02:01:35.533Z,76.24
2022-11-20T02:06:47.092Z,76.21
2022-11-20T02:11:50.655Z,76.44
2022-11-20T02:16:54.857Z,76.44
2022-11-20T02:22:29.652Z,76.55
2022-11-20T02:27:32.934Z,76.75
2022-11-20T02:32:36.852Z,76.67
2022-11-20T02:37:41.066Z,76.59
2022-11-20T02:42:43.894Z,76.90
2022-11-20T02:47:48.178Z,77.09
2022-11-20T02:52:51.475Z,77.05
2022-11-20T02:57:56.053Z,76.85
2022-11-20T03:02:58.879Z,76.88
2022-11-20T03:08:01.706Z,76.81
2022-11-20T03:13:04.930Z,76.95
2022-11-20T03:18:07.740Z,77.09
2022-11-20T03:23:11.242Z,77.28
2022-11-20T03:28:16.213Z,77.23
2022-11-20T03:33:19.147Z,77.13
2022-11-20T03:38:21.941Z,76.91
2022-11-20T03:43:24.858Z,77.07
2022-11-20T03:48:27.735Z,77.06
2022-11-20T03:53:30.653Z,77.03
2022-11-20T03:58:36.916Z,77.04
2022-11-20T04:03:40.498Z,76.82
2022-11-20T04:08:43.435Z,77.09
2022-11-20T04:13:52.263Z,77.00
2022-11-20T04:18:56.606Z,76.71
2022-11-20T04:24:00.210Z,76.81
2022-11-20T04:29:03.250Z,76.67
2022-11-20T04:34:07.577Z,76.85
2022-11-20T04:39:16.377Z,77.03
2022-11-20T04:44:19.178Z,77.06
2022-11-20T04:49:22.332Z,77.01
2022-11-20T04:54:25.548Z,76.86
2022-11-20T04:59:30.669Z,76.89
2022-11-20T05:04:34.216Z,77.01
2022-11-20T05:09:36.995Z,77.06
2022-11-20T05:14:40.772Z,77.23
2022-11-20T05:19:44.109Z,77.20
2022-11-20T05:24:47.176Z,77.09
2022-11-20T05:29:50.057Z,77.25
2022-11-20T05:34:53.549Z,77.36
2022-11-20T05:39:56.340Z,77.32
2022-11-20T05:45:00.192Z,77.22
2022-11-20T05:50:03.284Z,77.17
2022-11-20T05:55:07.098Z,77.41
2022-11-20T06:00:11.349Z,77.60
2022-11-20T06:05:14.411Z,77.87
2022-11-20T06:10:17.767Z,77.72
2022-11-20T06:15:21.105Z,77.79
2022-11-20T06:20:24.612Z,77.75
2022-11-20T06:25:28.027Z,77.54
2022-11-20T06:30:31.679Z,77.64
2022-11-20T06:35:35.284Z,77.74
2022-11-20T06:40:42.286Z,77.86
2022-11-20T06:45:45.118Z,77.75
2022-11-20T06:50:48.063Z,77.75
2022-11-20T06:55:51.397Z,77.61
2022-11-20T07:00:54.886Z,77.78
2022-11-20T07:05:59.678Z,77.68
2022-11-20T07:11:05.945Z,78.17
2022-11-20T07:16:09.330Z,78.28
2022-11-20T07:21:12.760Z,78.19
2022-11-20T07:26:15.616Z,78.32
2022-11-20T07:31:19.719Z,78.16
2022-11-20T07:36:23.825Z,77.97
2022-11-20T07:41:26.632Z,77.86
2022-11-20T07:46:29.474Z,77.95
2022-11-20T07:51:32.729Z,78.00
2022-11-20T07:56:35.545Z,77.89
2022-11-20T08:01:39.931Z,77.91
2022-11-20T08:06:43.048Z,77.79
2022-11-20T08:12:04.609Z,77.87
2022-11-20T08:17:07.392Z,77.71
2022-11-20T08:22:10.190Z,77.43
2022-11-20T08:27:13.077Z,77.61
2022-11-20T08:32:15.947Z,77.66
2022-11-20T08:37:20.042Z,77.87
2022-11-20T08:42:23.772Z,77.98
2022-11-20T08:47:26.578Z,77.58
2022-11-20T08:52:29.443Z,77.44
2022-11-20T08:57:34.661Z,77.82
2022-11-20T09:02:37.551Z,77.70
2022-11-20T09:07:42.209Z,77.69
2022-11-20T09:12:49.876Z,77.67
2022-11-20T09:17:59.291Z,77.42
2022-11-20T09:23:02.098Z,77.43
2022-11-20T09:28:05.164Z,77.38
2022-11-20T09:33:09.289Z,77.20
2022-11-20T09:38:12.199Z,77.41
2022-11-20T09:43:34.942Z,77.41
2022-11-20T09:49:12.429Z,77.73
2022-11-20T09:54:19.120Z,77.54
2022-11-20T09:59:42.096Z,77.41
2022-11-20T10:04:50.720Z,77.29
2022-11-20T10:09:57.427Z,77.34
2022-11-20T10:15:32.171Z,77.50
2022-11-20T10:20:41.222Z,77.25
2022-11-20T10:25:57.402Z,77.17
2022-11-20T10:31:14.497Z,77.15
2022-11-20T10:36:29.494Z,77.16
2022-11-20T10:41:40.044Z,77.29
2022-11-20T10:46:45.372Z,76.93
2022-11-20T10:51:54.302Z,76.88
2022-11-20T10:57:15.103Z,76.53
2022-11-20T11:02:23.196Z,76.41
2022-11-20T11:07:35.177Z,76.64
2022-11-20T11:12:51.961Z,76.46
2022-11-20T11:17:54.901Z,76.42
2022-11-20T11:23:00.556Z,76.16
2022-11-20T11:28:26.025Z,75.95
2022-11-20T11:33:34.601Z,75.93
2022-11-20T11:38:42.265Z,76.16
2022-11-20T11:44:22.194Z,76.10
2022-11-20T11:49:25.580Z,75.93
2022-11-20T11:55:10.247Z,75.47
2022-11-20T12:00:22.046Z,75.33
2022-11-20T12:05:30.235Z,75.35
2022-11-20T12:10:47.156Z,75.29
2022-11-20T12:15:51.058Z,75.28
2022-11-20T12:21:26.056Z,74.90
2022-11-20T12:26:58.270Z,74.79
2022-11-20T12:32:07.927Z,74.76
2022-11-20T12:37:56.418Z,74.72
2022-11-20T12:43:44.046Z,75.12
2022-11-20T12:49:12.339Z,75.26
2022-11-20T12:54:37.077Z,75.13
2022-11-20T13:00:11.902Z,74.92
2022-11-20T13:06:03.061Z,74.71
2022-11-20T13:11:32.676Z,74.30
2022-11-20T13:17:13.832Z,74.36
2022-11-20T13:22:28.663Z,74.53
2022-11-20T13:27:33.129Z,74.73
2022-11-20T13:32:36.199Z,74.58
2022-11-20T13:37:39.154Z,74.45
2022-11-20T13:42:47.321Z,74.53
2022-11-20T13:47:51.586Z,74.64
2022-11-20T13:53:08.238Z,74.58
2022-11-20T13:58:54.868Z,74.44
2022-11-20T14:04:06.429Z,74.68
2022-11-20T14:09:25.923Z,74.48
2022-11-20T14:14:30.641Z,74.46
2022-11-20T14:19:38.010Z,74.81
2022-11-20T14:24:40.932Z,75.07
2022-11-20T14:29:43.804Z,75.02
2022-11-20T14:34:49.139Z,75.13
2022-11-20T14:39:54.917Z,75.12
2022-11-20T14:44:59.742Z,75.57
2022-11-20T14:50:07.212Z,75.62
2022-11-20T14:55:16.837Z,75.71
2022-11-20T15:00:22.407Z,75.79
2022-11-20T15:05:45.740Z,75.94
2022-11-20T15:10:50.012Z,76.12
2022-11-20T15:15:56.102Z,76.55
2022-11-20T15:21:02.655Z,76.50
2022-11-20T15:26:15.388Z,76.62
2022-11-20T15:31:23.788Z,76.74
2022-11-20T15:36:26.693Z,76.86
2022-11-20T15:41:29.608Z,77.02
2022-11-20T15:46:40.928Z,77.14
2022-11-20T15:51:49.659Z,77.22
2022-11-20T15:56:55.366Z,77.28
2022-11-20T16:01:58.210Z,77.36
2022-11-20T16:07:02.441Z,77.52
2022-11-20T16:12:05.619Z,77.65
2022-11-20T16:17:09.450Z,77.49
2022-11-20T16:22:12.423Z,77.51
2022-11-20T16:27:15.348Z,77.73
2022-11-20T16:32:18.185Z,78.00
2022-11-20T16:37:20.969Z,77.93
2022-11-20T16:42:23.877Z,77.98
2022-11-20T16:47:26.690Z,77.98
2022-11-20T16:52:31.235Z,78.06
2022-11-20T16:57:36.333Z,78.21
2022-11-20T17:02:39.162Z,78.29
2022-11-20T17:07:42.044Z,78.18
2022-11-20T17:12:46.020Z,77.97
2022-11-20T17:17:48.827Z,78.03
2022-11-20T17:22:52.081Z,78.30
2022-11-20T17:27:54.914Z,78.44
2022-11-20T17:32:59.013Z,78.32
2022-11-20T17:38:02.985Z,78.28
2022-11-20T17:43:06.022Z,78.35
2022-11-20T17:48:09.388Z,78.56
2022-11-20T17:53:12.731Z,78.25
2022-11-20T17:58:15.531Z,78.39
2022-11-20T18:03:38.460Z,78.36
2022-11-20T18:08:41.849Z,78.50
2022-11-20T18:14:04.932Z,78.40
2022-11-20T18:19:07.781Z,78.48
2022-11-20T18:24:10.972Z,78.61
2022-11-20T18:29:14.115Z,78.58
2022-11-20T18:34:17.463Z,78.87
2022-11-20T18:39:24.259Z,78.79
2022-11-20T18:44:48.670Z,78.64
2022-11-20T18:49:53.530Z,78.71
2022-11-20T18:54:56.469Z,78.94
2022-11-20T19:00:08.471Z,78.92
2022-11-20T19:05:13.962Z,79.22
2022-11-20T19:10:20.432Z,78.87
2022-11-20T19:15:24.873Z,79.32
2022-11-20T19:20:27.812Z,79.55
2022-11-20T19:25:37.905Z,79.31
2022-11-20T19:30:41.810Z,79.14
2022-11-20T19:35:44.748Z,79.38
2022-11-20T19:40:47.608Z,79.46
2022-11-20T19:45:50.477Z,79.72
2022-11-20T19:50:53.289Z,79.66
2022-11-20T19:55:57.987Z,79.72
2022-11-20T20:01:10.817Z,79.36
2022-11-20T20:06:19.216Z,79.59
2022-11-20T20:11:23.281Z,79.68
2022-11-20T20:16:26.671Z,79.73
2022-11-20T20:21:30.720Z,79.63
2022-11-20T20:26:33.655Z,79.67
2022-11-20T20:31:36.631Z,79.80
2022-11-20T20:36:39.433Z,79.91
2022-11-20T20:41:42.386Z,80.18
2022-11-20T20:46:45.279Z,79.74
2022-11-20T20:51:48.071Z,79.82
2022-11-20T20:56:51.840Z,79.95
2022-11-20T21:01:54.873Z,79.98
2022-11-20T21:06:59.602Z,80.06
2022-11-20T21:12:02.568Z,80.11
2022-11-20T21:17:05.363Z,79.94
2022-11-20T21:22:08.837Z,80.20
2022-11-20T21:27:11.660Z,80.29
2022-11-20T21:32:14.502Z,80.09
2022-11-20T21:37:18.231Z,80.14
2022-11-20T21:42:21.512Z,80.44
2022-11-20T21:47:24.661Z,80.24
2022-11-20T21:52:27.403Z,80.45
2022-11-20T21:57:32.915Z,80.70
2022-11-20T22:02:35.690Z,80.53
2022-11-20T22:07:38.498Z,80.74
2022-11-20T22:12:41.559Z,80.71
2022-11-20T22:18:02.999Z,80.86
2022-11-20T22:23:05.984Z,80.80
2022-11-20T22:28:16.573Z,80.86
2022-11-20T22:33:19.957Z,80.94
2022-11-20T22:38:29.347Z,80.87
2022-11-20T22:43:32.634Z,80.76
2022-11-20T22:48:37.481Z,80.80
2022-11-20T22:53:41.614Z,80.91
2022-11-20T22:58:47.021Z,80.65
2022-11-20T23:04:05.244Z,80.51
2022-11-20T23:09:09.618Z,80.76
2022-11-20T23:14:13.771Z,80.35
2022-11-20T23:19:17.051Z,80.24
2022-11-20T23:24:21.058Z,80.56
2022-11-20T23:29:23.837Z,80.47
2022-11-20T23:34:27.019Z,80.72
2022-11-20T23:39:30.099Z,80.82
2022-11-20T23:44:32.975Z,81.01
2022-11-20T23:49:35.836Z,80.90
2022-11-20T23:54:38.610Z,81.19
2022-11-20T23:59:41.452Z,81.28
